Live aus Altenrhein
LIVE
LSZR 291450Z 28006KT CAVOK 29/11 Q1014 NOSIG RMK M

People´s Info Center:

Öffnungszeiten Mo-Fr, 8-18 Uhr

 

info@peoples.ch

 
Aus Österreich:

T: +43 (0)5572 203 610

 

Aus CH / LI / DE:

T: +41 (0)71 858 51 60

 

Aktueller Timetable / Live Flugstatus

Flughafen St.Gallen-Altenrhein.


Ankünfte in St. Gallen-Altenrhein
Plan Erw. von Flug Info
09:10 09:10 Wien PE101
gelandet
13:50 13:50 Wien PE103
gelandet
16:50 16:50 Wien PE105
gelandet
20:55 20:55 Wien PE107
planmässig

Shuttlebus online buchen

Altenrhein - Vorarlberg ->hier buchen

 

Abflüge von St. Gallen-Altenrhein
Plan Erw. nach Flug Info
06:30 06:30 Wien PE100
gelandet
10:40 10:40 Wien PE102
gelandet
14:20 14:20 Wien PE104
gelandet
18:15 18:15 Wien PE106
planmässig

People's Info Center

T. +43 (0)5572 203 610

T. +41 (0)71 858 51 60